sensor_id;sensor_type;location;lat;lon;timestamp;pressure;altitude;pressure_sealevel;temperature;humidity
76847;BME280;65813;49.546;8.644;2023-07-31T03:46:50;100421.16;;;18.00;62.84
76847;BME280;65813;49.546;8.644;2023-07-31T03:50:50;100413.25;;;17.98;62.31
76847;BME280;65813;49.546;8.644;2023-07-31T03:54:51;100425.66;;;17.91;63.16
76847;BME280;65813;49.546;8.644;2023-07-31T03:58:51;100412.31;;;17.90;63.15
76847;BME280;65813;49.546;8.644;2023-07-31T04:02:51;100417.94;;;17.96;63.41
76847;BME280;65813;49.546;8.644;2023-07-31T04:06:51;100409.38;;;17.75;64.01
76847;BME280;65813;49.546;8.644;2023-07-31T04:10:52;100414.22;;;17.89;63.17
76847;BME280;65813;49.546;8.644;2023-07-31T04:14:52;100418.56;;;17.90;63.52
76847;BME280;65813;49.546;8.644;2023-07-31T04:18:52;100422.28;;;17.89;62.84
76847;BME280;65813;49.546;8.644;2023-07-31T04:22:53;100427.72;;;17.97;63.27
76847;BME280;65813;49.546;8.644;2023-07-31T04:26:53;100427.38;;;17.92;62.82
76847;BME280;65813;49.546;8.644;2023-07-31T04:30:53;100429.47;;;17.81;63.72
76847;BME280;65813;49.546;8.644;2023-07-31T04:34:54;100421.38;;;17.81;63.33
76847;BME280;65813;49.546;8.644;2023-07-31T04:38:54;100418.81;;;17.79;63.35
76847;BME280;65813;49.546;8.644;2023-07-31T04:42:54;100418.34;;;17.84;63.80
76847;BME280;65813;49.546;8.644;2023-07-31T04:46:55;100412.28;;;17.82;63.29
76847;BME280;65813;49.546;8.644;2023-07-31T04:50:55;100414.28;;;17.80;63.32
76847;BME280;65813;49.546;8.644;2023-07-31T04:54:55;100415.78;;;17.74;63.35
76847;BME280;65813;49.546;8.644;2023-07-31T04:58:56;100413.41;;;17.71;63.15
76847;BME280;65813;49.546;8.644;2023-07-31T05:02:56;100410.44;;;17.82;63.00
76847;BME280;65813;49.546;8.644;2023-07-31T05:06:56;100406.91;;;17.82;63.82
76847;BME280;65813;49.546;8.644;2023-07-31T05:10:57;100405.34;;;17.79;63.77
76847;BME280;65813;49.546;8.644;2023-07-31T05:14:57;100414.06;;;17.73;64.00
76847;BME280;65813;49.546;8.644;2023-07-31T05:18:57;100410.22;;;18.01;63.33
76847;BME280;65813;49.546;8.644;2023-07-31T05:22:57;100400.88;;;17.88;63.42
76847;BME280;65813;49.546;8.644;2023-07-31T05:26:58;100403.72;;;17.86;63.72
76847;BME280;65813;49.546;8.644;2023-07-31T05:31:05;100406.41;;;17.86;63.92
76847;BME280;65813;49.546;8.644;2023-07-31T05:35:05;100405.06;;;17.82;64.37
76847;BME280;65813;49.546;8.644;2023-07-31T05:39:06;100398.31;;;17.86;64.19
76847;BME280;65813;49.546;8.644;2023-07-31T05:43:08;100396.34;;;17.88;63.87
76847;BME280;65813;49.546;8.644;2023-07-31T05:47:09;100403.03;;;17.84;64.70
76847;BME280;65813;49.546;8.644;2023-07-31T05:51:10;100401.34;;;17.83;64.91
76847;BME280;65813;49.546;8.644;2023-07-31T05:55:10;100403.91;;;17.93;65.00
76847;BME280;65813;49.546;8.644;2023-07-31T05:59:12;100397.19;;;17.89;64.89
76847;BME280;65813;49.546;8.644;2023-07-31T06:03:13;100385.03;;;17.85;64.91
76847;BME280;65813;49.546;8.644;2023-07-31T06:07:13;100392.84;;;17.96;64.54
76847;BME280;65813;49.546;8.644;2023-07-31T06:11:14;100388.03;;;17.82;64.66
76847;BME280;65813;49.546;8.644;2023-07-31T06:15:14;100394.88;;;17.76;64.84
76847;BME280;65813;49.546;8.644;2023-07-31T06:19:14;100371.81;;;17.74;64.45
76847;BME280;65813;49.546;8.644;2023-07-31T06:23:15;100385.34;;;17.82;65.12
76847;BME280;65813;49.546;8.644;2023-07-31T06:27:15;100382.16;;;17.86;65.21
76847;BME280;65813;49.546;8.644;2023-07-31T06:31:15;100381.88;;;17.89;65.29
76847;BME280;65813;49.546;8.644;2023-07-31T06:35:18;100371.69;;;18.09;64.60
76847;BME280;65813;49.546;8.644;2023-07-31T06:39:18;100370.50;;;18.11;64.61
76847;BME280;65813;49.546;8.644;2023-07-31T06:43:19;100375.22;;;18.09;63.97
76847;BME280;65813;49.546;8.644;2023-07-31T06:47:19;100375.38;;;18.08;64.54
76847;BME280;65813;49.546;8.644;2023-07-31T06:51:19;100381.97;;;18.13;65.07
76847;BME280;65813;49.546;8.644;2023-07-31T06:55:21;100373.53;;;18.08;64.70
76847;BME280;65813;49.546;8.644;2023-07-31T06:59:22;100379.59;;;18.10;65.23
76847;BME280;65813;49.546;8.644;2023-07-31T07:03:22;100378.59;;;18.11;65.08
76847;BME280;65813;49.546;8.644;2023-07-31T07:07:22;100389.09;;;18.23;64.38
76847;BME280;65813;49.546;8.644;2023-07-31T07:11:23;100383.25;;;18.27;64.17
76847;BME280;65813;49.546;8.644;2023-07-31T07:15:23;100383.59;;;18.32;64.39
76847;BME280;65813;49.546;8.644;2023-07-31T07:19:26;100372.94;;;18.23;64.88
76847;BME280;65813;49.546;8.644;2023-07-31T07:23:26;100386.47;;;18.39;64.92
76847;BME280;65813;49.546;8.644;2023-07-31T07:27:26;100383.19;;;18.53;64.78
76847;BME280;65813;49.546;8.644;2023-07-31T07:31:27;100384.19;;;18.52;64.46
76847;BME280;65813;49.546;8.644;2023-07-31T07:35:28;100378.78;;;18.52;64.64
76847;BME280;65813;49.546;8.644;2023-07-31T07:39:28;100369.53;;;18.54;63.73
76847;BME280;65813;49.546;8.644;2023-07-31T07:43:29;100375.13;;;18.69;64.15
76847;BME280;65813;49.546;8.644;2023-07-31T07:47:29;100382.25;;;18.78;64.30
76847;BME280;65813;49.546;8.644;2023-07-31T07:51:30;100381.75;;;18.83;64.12
76847;BME280;65813;49.546;8.644;2023-07-31T07:55:31;100369.94;;;18.84;63.54
76847;BME280;65813;49.546;8.644;2023-07-31T07:59:31;100373.00;;;18.97;63.75
76847;BME280;65813;49.546;8.644;2023-07-31T08:03:32;100361.53;;;18.95;64.00
76847;BME280;65813;49.546;8.644;2023-07-31T08:07:32;100367.75;;;19.03;62.87
76847;BME280;65813;49.546;8.644;2023-07-31T08:11:32;100347.03;;;19.20;62.19
76847;BME280;65813;49.546;8.644;2023-07-31T08:15:33;100332.00;;;19.34;62.70
76847;BME280;65813;49.546;8.644;2023-07-31T08:19:33;100334.88;;;19.40;62.56
76847;BME280;65813;49.546;8.644;2023-07-31T08:23:33;100333.38;;;19.54;61.15
76847;BME280;65813;49.546;8.644;2023-07-31T08:27:34;100325.91;;;19.64;60.29
76847;BME280;65813;49.546;8.644;2023-07-31T08:31:34;100323.16;;;19.80;60.86
76847;BME280;65813;49.546;8.644;2023-07-31T08:35:34;100311.03;;;19.68;61.11
76847;BME280;65813;49.546;8.644;2023-07-31T08:39:35;100296.19;;;19.64;60.40
76847;BME280;65813;49.546;8.644;2023-07-31T08:43:36;100304.72;;;19.92;60.37
76847;BME280;65813;49.546;8.644;2023-07-31T08:47:37;100297.47;;;19.84;60.54
76847;BME280;65813;49.546;8.644;2023-07-31T08:51:38;100294.09;;;19.82;60.81
76847;BME280;65813;49.546;8.644;2023-07-31T08:55:40;100296.25;;;19.87;60.33
76847;BME280;65813;49.546;8.644;2023-07-31T08:59:41;100281.41;;;20.22;60.74
76847;BME280;65813;49.546;8.644;2023-07-31T09:03:43;100277.59;;;20.08;59.23
76847;BME280;65813;49.546;8.644;2023-07-31T09:07:46;100285.44;;;20.26;59.51
76847;BME280;65813;49.546;8.644;2023-07-31T09:11:47;100285.88;;;20.45;58.98
76847;BME280;65813;49.546;8.644;2023-07-31T09:15:49;100286.06;;;20.44;59.18
76847;BME280;65813;49.546;8.644;2023-07-31T09:19:49;100282.41;;;20.59;58.41
76847;BME280;65813;49.546;8.644;2023-07-31T09:23:50;100266.41;;;20.95;57.97
76847;BME280;65813;49.546;8.644;2023-07-31T09:27:59;100280.97;;;20.94;58.23
76847;BME280;65813;49.546;8.644;2023-07-31T09:31:59;100278.44;;;20.70;57.65
76847;BME280;65813;49.546;8.644;2023-07-31T09:36:00;100262.16;;;20.78;57.31
76847;BME280;65813;49.546;8.644;2023-07-31T09:40:00;100274.63;;;20.79;58.40
76847;BME280;65813;49.546;8.644;2023-07-31T09:44:01;100247.66;;;21.08;56.91
76847;BME280;65813;49.546;8.644;2023-07-31T09:48:01;100244.34;;;21.21;56.00
76847;BME280;65813;49.546;8.644;2023-07-31T09:52:11;100239.81;;;21.51;55.42
76847;BME280;65813;49.546;8.644;2023-07-31T09:56:12;100246.50;;;21.55;54.41
76847;BME280;65813;49.546;8.644;2023-07-31T10:00:13;100227.81;;;21.31;54.91
76847;BME280;65813;49.546;8.644;2023-07-31T10:04:17;100241.63;;;21.21;55.50
76847;BME280;65813;49.546;8.644;2023-07-31T10:08:26;100227.84;;;21.08;56.24
76847;BME280;65813;49.546;8.644;2023-07-31T10:12:31;100227.75;;;21.01;56.54
76847;BME280;65813;49.546;8.644;2023-07-31T10:16:32;100226.03;;;20.86;56.54
76847;BME280;65813;49.546;8.644;2023-07-31T10:20:33;100211.75;;;20.92;55.75
76847;BME280;65813;49.546;8.644;2023-07-31T10:24:34;100217.56;;;21.03;55.89
76847;BME280;65813;49.546;8.644;2023-07-31T10:28:36;100205.06;;;21.02;55.90
76847;BME280;65813;49.546;8.644;2023-07-31T10:32:39;100213.53;;;21.37;55.60
76847;BME280;65813;49.546;8.644;2023-07-31T10:36:40;100201.47;;;21.54;55.72
76847;BME280;65813;49.546;8.644;2023-07-31T10:40:41;100198.09;;;21.52;54.06
76847;BME280;65813;49.546;8.644;2023-07-31T10:44:46;100205.75;;;21.48;53.83
76847;BME280;65813;49.546;8.644;2023-07-31T10:49:00;100195.50;;;21.44;55.01
76847;BME280;65813;49.546;8.644;2023-07-31T10:53:01;100203.41;;;21.45;53.99
76847;BME280;65813;49.546;8.644;2023-07-31T10:57:01;100208.63;;;21.76;53.30
76847;BME280;65813;49.546;8.644;2023-07-31T11:01:04;100200.03;;;21.73;54.61
76847;BME280;65813;49.546;8.644;2023-07-31T11:05:11;100203.59;;;21.58;55.06
76847;BME280;65813;49.546;8.644;2023-07-31T11:09:13;100195.59;;;21.65;55.32
76847;BME280;65813;49.546;8.644;2023-07-31T11:13:14;100184.44;;;21.60;55.04
76847;BME280;65813;49.546;8.644;2023-07-31T11:17:14;100177.53;;;21.57;55.15
76847;BME280;65813;49.546;8.644;2023-07-31T11:21:16;100183.69;;;21.66;55.08
76847;BME280;65813;49.546;8.644;2023-07-31T11:25:17;100173.00;;;21.79;52.85
76847;BME280;65813;49.546;8.644;2023-07-31T11:29:27;100175.16;;;21.84;54.15
76847;BME280;65813;49.546;8.644;2023-07-31T11:33:27;100180.50;;;21.77;55.25
76847;BME280;65813;49.546;8.644;2023-07-31T11:37:44;100185.00;;;21.70;55.68
76847;BME280;65813;49.546;8.644;2023-07-31T11:41:44;100183.13;;;21.71;54.44
76847;BME280;65813;49.546;8.644;2023-07-31T11:45:50;100180.03;;;21.59;55.42
76847;BME280;65813;49.546;8.644;2023-07-31T11:49:51;100161.81;;;21.53;55.40
76847;BME280;65813;49.546;8.644;2023-07-31T11:53:54;100156.16;;;21.33;55.55
76847;BME280;65813;49.546;8.644;2023-07-31T11:57:57;100154.63;;;21.45;55.85
76847;BME280;65813;49.546;8.644;2023-07-31T12:01:58;100153.16;;;21.43;55.56
76847;BME280;65813;49.546;8.644;2023-07-31T12:05:59;100148.38;;;21.45;55.76
76847;BME280;65813;49.546;8.644;2023-07-31T12:09:59;100136.59;;;21.38;55.55
76847;BME280;65813;49.546;8.644;2023-07-31T12:14:02;100134.56;;;21.40;56.73
76847;BME280;65813;49.546;8.644;2023-07-31T12:18:06;100138.38;;;21.45;56.13
76847;BME280;65813;49.546;8.644;2023-07-31T12:22:19;100133.41;;;21.49;56.33
76847;BME280;65813;49.546;8.644;2023-07-31T12:26:21;100121.44;;;21.58;55.61
76847;BME280;65813;49.546;8.644;2023-07-31T12:30:31;100120.28;;;21.67;54.39
76847;BME280;65813;49.546;8.644;2023-07-31T12:34:42;100114.88;;;21.67;55.56
76847;BME280;65813;49.546;8.644;2023-07-31T12:38:43;100119.13;;;21.76;54.31
76847;BME280;65813;49.546;8.644;2023-07-31T12:42:43;100110.38;;;21.74;54.98
76847;BME280;65813;49.546;8.644;2023-07-31T12:46:43;100101.31;;;21.67;54.74
76847;BME280;65813;49.546;8.644;2023-07-31T12:50:44;100104.66;;;21.69;53.84
76847;BME280;65813;49.546;8.644;2023-07-31T12:54:44;100095.03;;;21.66;54.10
76847;BME280;65813;49.546;8.644;2023-07-31T12:58:44;100093.31;;;21.80;52.52
76847;BME280;65813;49.546;8.644;2023-07-31T13:02:45;100096.50;;;21.84;51.61
76847;BME280;65813;49.546;8.644;2023-07-31T13:06:45;100087.13;;;21.86;51.92
76847;BME280;65813;49.546;8.644;2023-07-31T13:10:46;100081.69;;;21.86;53.22
76847;BME280;65813;49.546;8.644;2023-07-31T13:14:46;100069.97;;;22.00;53.91
76847;BME280;65813;49.546;8.644;2023-07-31T13:18:46;100045.56;;;22.00;53.54
76847;BME280;65813;49.546;8.644;2023-07-31T13:22:47;100061.09;;;22.06;53.22
76847;BME280;65813;49.546;8.644;2023-07-31T13:26:47;100049.84;;;22.09;52.81
76847;BME280;65813;49.546;8.644;2023-07-31T13:30:47;100057.13;;;22.09;52.53
76847;BME280;65813;49.546;8.644;2023-07-31T13:34:51;100056.63;;;21.99;54.14
76847;BME280;65813;49.546;8.644;2023-07-31T13:38:51;100048.03;;;21.95;53.58
76847;BME280;65813;49.546;8.644;2023-07-31T13:42:52;100044.72;;;22.00;53.68
76847;BME280;65813;49.546;8.644;2023-07-31T13:46:53;100043.50;;;22.02;53.05
76847;BME280;65813;49.546;8.644;2023-07-31T13:50:53;100029.03;;;21.95;53.26
76847;BME280;65813;49.546;8.644;2023-07-31T13:54:54;100044.72;;;22.00;53.16
76847;BME280;65813;49.546;8.644;2023-07-31T13:58:54;100039.91;;;21.95;53.94
76847;BME280;65813;49.546;8.644;2023-07-31T14:02:54;100033.81;;;21.93;53.74
76847;BME280;65813;49.546;8.644;2023-07-31T14:06:58;100036.91;;;21.90;54.03
76847;BME280;65813;49.546;8.644;2023-07-31T14:10:58;100035.78;;;21.85;54.75
76847;BME280;65813;49.546;8.644;2023-07-31T14:14:59;100031.94;;;21.94;54.25
76847;BME280;65813;49.546;8.644;2023-07-31T14:18:59;100028.13;;;21.88;54.54
76847;BME280;65813;49.546;8.644;2023-07-31T14:22:59;100033.50;;;22.03;54.22
76847;BME280;65813;49.546;8.644;2023-07-31T14:27:00;100027.25;;;22.02;54.99
76847;BME280;65813;49.546;8.644;2023-07-31T14:31:00;100020.00;;;22.09;54.94
76847;BME280;65813;49.546;8.644;2023-07-31T14:35:00;100008.97;;;22.17;54.68
76847;BME280;65813;49.546;8.644;2023-07-31T14:39:01;99989.59;;;22.21;54.36
76847;BME280;65813;49.546;8.644;2023-07-31T14:43:01;99991.72;;;22.25;54.86
76847;BME280;65813;49.546;8.644;2023-07-31T14:47:01;99985.03;;;22.28;55.62
76847;BME280;65813;49.546;8.644;2023-07-31T14:51:02;99990.88;;;22.25;55.49
76847;BME280;65813;49.546;8.644;2023-07-31T14:55:02;99972.09;;;22.23;55.87
76847;BME280;65813;49.546;8.644;2023-07-31T14:59:03;99966.63;;;22.17;56.23
76847;BME280;65813;49.546;8.644;2023-07-31T15:03:03;99964.78;;;22.24;55.21
76847;BME280;65813;49.546;8.644;2023-07-31T15:07:04;99971.47;;;22.28;55.52
76847;BME280;65813;49.546;8.644;2023-07-31T15:11:05;99982.59;;;22.33;54.81
76847;BME280;65813;49.546;8.644;2023-07-31T15:15:05;99969.16;;;22.25;54.74
76847;BME280;65813;49.546;8.644;2023-07-31T15:19:06;99960.00;;;22.26;54.90
76847;BME280;65813;49.546;8.644;2023-07-31T15:23:06;99973.22;;;22.35;55.09
76847;BME280;65813;49.546;8.644;2023-07-31T15:27:07;99971.03;;;22.24;54.00
76847;BME280;65813;49.546;8.644;2023-07-31T15:31:08;99970.44;;;22.29;53.01
76847;BME280;65813;49.546;8.644;2023-07-31T15:35:09;99979.66;;;22.34;52.57
76847;BME280;65813;49.546;8.644;2023-07-31T15:39:09;99984.88;;;22.29;52.99
76847;BME280;65813;49.546;8.644;2023-07-31T15:43:10;99968.94;;;22.20;53.78
76847;BME280;65813;49.546;8.644;2023-07-31T15:47:10;99976.84;;;22.21;52.85
76847;BME280;65813;49.546;8.644;2023-07-31T15:51:10;99980.03;;;22.25;53.57
76847;BME280;65813;49.546;8.644;2023-07-31T15:55:11;99979.78;;;22.20;53.84
76847;BME280;65813;49.546;8.644;2023-07-31T15:59:11;99964.13;;;22.22;53.75
76847;BME280;65813;49.546;8.644;2023-07-31T16:03:11;99960.00;;;22.26;54.29
76847;BME280;65813;49.546;8.644;2023-07-31T16:07:12;99952.03;;;22.24;54.20
76847;BME280;65813;49.546;8.644;2023-07-31T16:11:12;99942.56;;;22.13;55.52
76847;BME280;65813;49.546;8.644;2023-07-31T16:15:12;99947.75;;;22.08;55.23
76847;BME280;65813;49.546;8.644;2023-07-31T16:19:13;99941.44;;;22.01;55.80
76847;BME280;65813;49.546;8.644;2023-07-31T16:23:13;99937.69;;;22.02;56.06
76847;BME280;65813;49.546;8.644;2023-07-31T16:27:14;99943.72;;;21.98;56.69
76847;BME280;65813;49.546;8.644;2023-07-31T16:31:14;99947.66;;;21.95;56.36
76847;BME280;65813;49.546;8.644;2023-07-31T16:35:14;99932.00;;;21.97;56.25
76847;BME280;65813;49.546;8.644;2023-07-31T16:39:15;99937.88;;;21.80;59.96
76847;BME280;65813;49.546;8.644;2023-07-31T16:43:15;99934.50;;;21.71;60.41
76847;BME280;65813;49.546;8.644;2023-07-31T16:47:15;99934.63;;;21.63;61.05
76847;BME280;65813;49.546;8.644;2023-07-31T16:51:16;99933.72;;;21.56;61.78
76847;BME280;65813;49.546;8.644;2023-07-31T16:55:17;99927.38;;;21.49;61.81
76847;BME280;65813;49.546;8.644;2023-07-31T16:59:18;99904.75;;;21.35;62.33
76847;BME280;65813;49.546;8.644;2023-07-31T17:03:18;99907.66;;;21.34;63.45
76847;BME280;65813;49.546;8.644;2023-07-31T17:07:19;99895.84;;;21.20;65.11
76847;BME280;65813;49.546;8.644;2023-07-31T17:11:21;99898.47;;;21.13;66.60
76847;BME280;65813;49.546;8.644;2023-07-31T17:15:21;99902.69;;;21.01;67.58
76847;BME280;65813;49.546;8.644;2023-07-31T17:19:22;99907.38;;;20.93;68.81
76847;BME280;65813;49.546;8.644;2023-07-31T17:23:22;99909.75;;;20.66;72.68
76847;BME280;65813;49.546;8.644;2023-07-31T17:27:22;99909.13;;;20.64;70.56
76847;BME280;65813;49.546;8.644;2023-07-31T17:31:23;99919.66;;;20.45;72.71
76847;BME280;65813;49.546;8.644;2023-07-31T17:35:24;99913.78;;;20.27;73.22
76847;BME280;65813;49.546;8.644;2023-07-31T17:39:24;99929.53;;;20.23;74.32
76847;BME280;65813;49.546;8.644;2023-07-31T17:43:24;99934.50;;;20.20;75.44
76847;BME280;65813;49.546;8.644;2023-07-31T17:47:25;99925.06;;;20.15;76.50
76847;BME280;65813;49.546;8.644;2023-07-31T17:51:25;99928.88;;;20.06;76.82
76847;BME280;65813;49.546;8.644;2023-07-31T17:55:26;99929.38;;;19.87;79.91
76847;BME280;65813;49.546;8.644;2023-07-31T17:59:26;99929.44;;;19.64;79.25
76847;BME280;65813;49.546;8.644;2023-07-31T18:03:26;99918.44;;;19.66;80.06
76847;BME280;65813;49.546;8.644;2023-07-31T18:07:27;99917.41;;;19.67;79.84
76847;BME280;65813;49.546;8.644;2023-07-31T18:11:27;99903.91;;;19.67;79.50
76847;BME280;65813;49.546;8.644;2023-07-31T18:15:30;99902.03;;;19.67;80.17
76847;BME280;65813;49.546;8.644;2023-07-31T18:19:30;99884.69;;;19.62;81.04
76847;BME280;65813;49.546;8.644;2023-07-31T18:23:31;99891.09;;;19.38;83.33
76847;BME280;65813;49.546;8.644;2023-07-31T18:27:31;99889.78;;;19.34;85.47
76847;BME280;65813;49.546;8.644;2023-07-31T18:31:31;99874.38;;;19.43;85.35
76847;BME280;65813;49.546;8.644;2023-07-31T18:35:37;99875.13;;;19.51;84.92
76847;BME280;65813;49.546;8.644;2023-07-31T18:39:38;99872.75;;;19.56;84.62
76847;BME280;65813;49.546;8.644;2023-07-31T18:43:38;99879.47;;;19.60;84.58
76847;BME280;65813;49.546;8.644;2023-07-31T18:47:38;99876.72;;;19.46;86.29
76847;BME280;65813;49.546;8.644;2023-07-31T18:51:39;99885.22;;;19.35;86.13
76847;BME280;65813;49.546;8.644;2023-07-31T18:55:43;99862.97;;;19.33;85.98
76847;BME280;65813;49.546;8.644;2023-07-31T18:59:43;99870.34;;;19.39;87.21
76847;BME280;65813;49.546;8.644;2023-07-31T19:03:43;99870.47;;;19.23;85.39
76847;BME280;65813;49.546;8.644;2023-07-31T19:07:44;99869.50;;;19.15;85.79
76847;BME280;65813;49.546;8.644;2023-07-31T19:11:44;99862.41;;;19.14;85.34
76847;BME280;65813;49.546;8.644;2023-07-31T19:15:45;99867.91;;;19.06;85.62
76847;BME280;65813;49.546;8.644;2023-07-31T19:19:46;99867.41;;;19.03;86.16
76847;BME280;65813;49.546;8.644;2023-07-31T19:23:46;99861.81;;;19.04;85.61
76847;BME280;65813;49.546;8.644;2023-07-31T19:27:47;99877.00;;;19.05;84.36
76847;BME280;65813;49.546;8.644;2023-07-31T19:31:47;99860.34;;;19.02;85.71
76847;BME280;65813;49.546;8.644;2023-07-31T19:35:57;99857.78;;;19.00;86.93
76847;BME280;65813;49.546;8.644;2023-07-31T19:39:57;99871.66;;;18.97;85.17
76847;BME280;65813;49.546;8.644;2023-07-31T19:43:57;99867.94;;;18.98;85.13
76847;BME280;65813;49.546;8.644;2023-07-31T19:47:58;99866.25;;;18.97;84.69
76847;BME280;65813;49.546;8.644;2023-07-31T19:51:58;99854.31;;;18.92;84.10
76847;BME280;65813;49.546;8.644;2023-07-31T19:55:58;99842.97;;;18.96;82.75
76847;BME280;65813;49.546;8.644;2023-07-31T20:00:00;99835.56;;;18.98;84.72
76847;BME280;65813;49.546;8.644;2023-07-31T20:04:00;99842.69;;;18.91;84.60
76847;BME280;65813;49.546;8.644;2023-07-31T20:08:01;99839.34;;;18.89;83.30
76847;BME280;65813;49.546;8.644;2023-07-31T20:12:01;99846.28;;;18.84;81.91
76847;BME280;65813;49.546;8.644;2023-07-31T20:16:02;99860.75;;;18.91;81.68
76847;BME280;65813;49.546;8.644;2023-07-31T20:20:03;99863.34;;;18.76;82.43
76847;BME280;65813;49.546;8.644;2023-07-31T20:24:07;99862.88;;;18.73;83.70
76847;BME280;65813;49.546;8.644;2023-07-31T20:28:08;99875.94;;;18.61;85.36
76847;BME280;65813;49.546;8.644;2023-07-31T20:32:08;99837.22;;;18.77;84.48
76847;BME280;65813;49.546;8.644;2023-07-31T20:36:09;99831.25;;;18.58;86.57
76847;BME280;65813;49.546;8.644;2023-07-31T20:40:10;99816.44;;;18.46;85.81
76847;BME280;65813;49.546;8.644;2023-07-31T20:44:11;99797.44;;;18.40;86.97
76847;BME280;65813;49.546;8.644;2023-07-31T20:48:14;99783.44;;;18.05;90.63
76847;BME280;65813;49.546;8.644;2023-07-31T20:52:14;99765.19;;;17.85;91.80
76847;BME280;65813;49.546;8.644;2023-07-31T20:56:15;99749.06;;;17.69;92.35
76847;BME280;65813;49.546;8.644;2023-07-31T21:00:16;99745.56;;;17.60;93.46
76847;BME280;65813;49.546;8.644;2023-07-31T21:04:16;99740.16;;;17.60;92.62
76847;BME280;65813;49.546;8.644;2023-07-31T21:08:17;99741.53;;;17.56;93.25
76847;BME280;65813;49.546;8.644;2023-07-31T21:12:19;99724.56;;;17.86;90.46
76847;BME280;65813;49.546;8.644;2023-07-31T21:20:30;99726.19;;;17.56;90.35
76847;BME280;65813;49.546;8.644;2023-07-31T21:24:30;99717.75;;;17.51;91.30
76847;BME280;65813;49.546;8.644;2023-07-31T21:28:30;99706.81;;;17.53;92.08
76847;BME280;65813;49.546;8.644;2023-07-31T21:32:31;99689.84;;;17.60;92.74
76847;BME280;65813;49.546;8.644;2023-07-31T21:36:31;99667.44;;;17.52;92.49
76847;BME280;65813;49.546;8.644;2023-07-31T21:40:31;99660.19;;;17.60;92.45
